WetterOnline ( https://www.wetteronline.de )

Wetter aktuell Plön

Aktuelles Wetter: Dörnick (28m)

6-stündlich | Neueste Meldungen
Ortszeit Temperatur Wetter
So, 16.06. 2:00 13.1° C bedeckt
Sa, 15.06. 20:00 16.2° C leicht bewölkt
Sa, 15.06. 14:00 15.8° C bewölkt
Sa, 15.06. 8:00 14.0° C bedeckt
Sa, 15.06. 2:00 14.6° C leicht bewölkt
Fr, 14.06. 20:00 19.0° C bewölkt
Fr, 14.06. 14:00 19.7° C wolkig
Fr, 14.06. 8:00 13.3° C bedeckt
Ortszeit Temperatur Wetter
So, 16.06. 2:00 13.1° C bedeckt
So, 16.06. 1:50 13.1° C bedeckt
So, 16.06. 1:40 13.1° C bedeckt
So, 16.06. 1:30 13.3° C bedeckt
So, 16.06. 1:20 13.3° C bedeckt
So, 16.06. 1:10 13.2° C wolkig
So, 16.06. 1:00 13.5° C fast wolkenlos
So, 16.06. 0:30 13.3° C wolkenlos
So, 16.06. 0:00 13.2° C wolkenlos
Sa, 15.06. 23:30 13.8° C fast wolkenlos
Sa, 15.06. 23:00 13.9° C wolkig
Ortszeit Relative Feuchte Sichtweite
So, 16.06. 2:00 75% 65 km
Sa, 15.06. 20:00 64% 60 km
Sa, 15.06. 14:00 82% 65 km
Sa, 15.06. 8:00 88% 45 km
Sa, 15.06. 2:00 83% 50 km
Fr, 14.06. 20:00 54% >70 km
Fr, 14.06. 14:00 49% 60 km
Fr, 14.06. 8:00 66% >70 km
Ortszeit Relative Feuchte Sichtweite
So, 16.06. 2:00 75% 65 km
So, 16.06. 1:50 75% -
So, 16.06. 1:40 75% -
So, 16.06. 1:30 75% 60 km
So, 16.06. 1:20 75% -
So, 16.06. 1:10 76% -
So, 16.06. 1:00 74% 50 km
So, 16.06. 0:30 76% 60 km
So, 16.06. 0:00 77% 60 km
Sa, 15.06. 23:30 77% 50 km
Sa, 15.06. 23:00 78% 55 km
Ortszeit Niederschlagsmenge Niederschlagsart
So, 16.06. 2:00 0.0 l/m2 in 6 Std. -
Sa, 15.06. 20:00 6 l/m2 in 12 Std. Regen
Sa, 15.06. 14:00 6 l/m2 in 6 Std. Regen
Sa, 15.06. 8:00 0.4 l/m2 in 12 Std. Regen
Sa, 15.06. 2:00 0.1 l/m2 in 6 Std. Regen
Fr, 14.06. 20:00 0.0 l/m2 in 12 Std. -
Fr, 14.06. 14:00 0.0 l/m2 in 6 Std. -
Fr, 14.06. 8:00 0.0 l/m2 in 12 Std. -
Ortszeit Niederschlagsmenge Niederschlagsart
So, 16.06. 2:00 0.0 l/m2 in 1 Std. -
So, 16.06. 1:50 keine Meldung -
So, 16.06. 1:40 keine Meldung -
So, 16.06. 1:30 0.0 l/m2 in 30 Min -
So, 16.06. 1:20 keine Meldung -
So, 16.06. 1:10 keine Meldung -
So, 16.06. 1:00 0.0 l/m2 in 1 Std. -
So, 16.06. 0:30 0.0 l/m2 in 30 Min -
So, 16.06. 0:00 0.0 l/m2 in 1 Std. -
Sa, 15.06. 23:30 0.0 l/m2 in 30 Min -
Sa, 15.06. 23:00 0.0 l/m2 in 1 Std. -
Ortszeit Stärke Spitze Richtung
km/h Bft. km/h Grad Sektor
So, 16.06. 2:00 11 2 30 150° SO
Sa, 15.06. 20:00 13 3 59 200° S
Sa, 15.06. 14:00 17 3 41 190° S
Sa, 15.06. 8:00 13 3 26 120° SO
Sa, 15.06. 2:00 9 2 20 140° SO
Fr, 14.06. 20:00 11 2 37 160° S
Fr, 14.06. 14:00 18 3 32 170° S
Fr, 14.06. 8:00 15 3 26 150° SO
Ortszeit Stärke Spitze Richtung
km/h Bft. km/h Grad Sektor
So, 16.06. 2:00 11 2 22 150° SO
So, 16.06. 1:50 11 2 - 150° SO
So, 16.06. 1:40 11 2 - 150° SO
So, 16.06. 1:30 13 3 22 160° S
So, 16.06. 1:20 13 3 - 160° S
So, 16.06. 1:10 13 3 - 160° S
So, 16.06. 1:00 13 3 19 150° SO
So, 16.06. 0:30 9 2 17 150° SO
So, 16.06. 0:00 7 2 18 140° SO
Sa, 15.06. 23:30 11 2 14 160° S
Sa, 15.06. 23:00 9 2 15 140° SO
Ortszeit Untergrenze Bedeckung Gattung
total tief tief mittel hoch
So, 16.06. 2:00 4800 m 8/8 8/8 - - -
Sa, 15.06. 20:00 2100 m 4/8 4/8 - - -
Sa, 15.06. 14:00 630 m 8/8 4/8 - - -
Sa, 15.06. 8:00 750 m 8/8 8/8 - - -
Sa, 15.06. 2:00 7800 m 6/8 0/8 - - -
Fr, 14.06. 20:00 2700 m 7/8 7/8 - - -
Fr, 14.06. 14:00 1500 m 7/8 2/8 - - -
Fr, 14.06. 8:00 3000 m 8/8 8/8 - - -
Ortszeit Bedeckungsgrad in Achtel und Wolkenuntergrenze
So, 16.06. 2:00 8(4800m)
So, 16.06. 1:50 8(4800m)
So, 16.06. 1:40 8
So, 16.06. 1:30 8(4800m)
So, 16.06. 1:20 8(4800m)
So, 16.06. 1:10 6
So, 16.06. 1:00 1(2400m)
So, 16.06. 0:30 keine Wolken
So, 16.06. 0:00 keine Wolken
Sa, 15.06. 23:30 1(2100m)
Sa, 15.06. 23:00 1(2400m) 8(6000m)
Ortszeit Luftdruck NN (hPa) Tendenz (hPa in 3 Std.)
So, 16.06. 2:00 1007 + 0,2
Sa, 15.06. 20:00 1006 + 1,9
Sa, 15.06. 14:00 1001 + 1,3
Sa, 15.06. 8:00 1001 - 2,4
Sa, 15.06. 2:00 1006 - 1,6
Fr, 14.06. 20:00 1008 - 0,8
Fr, 14.06. 14:00 1009 - 0,6
Fr, 14.06. 8:00 1011 - 1,2
Ortszeit Luftdruck NN (hPa) Tendenz (hPa in 3 Std.)
So, 16.06. 2:00 1007 + 0,2
So, 16.06. 1:50 1007 keine Meldung
So, 16.06. 1:40 1007 keine Meldung
So, 16.06. 1:30 1007 + 0,5
So, 16.06. 1:20 1007 keine Meldung
So, 16.06. 1:10 1007 keine Meldung
So, 16.06. 1:00 1007 + 0,6
So, 16.06. 0:30 1007 + 0,8
So, 16.06. 0:00 1007 + 0,9
Sa, 15.06. 23:30 1007 + 0,9
Sa, 15.06. 23:00 1007 + 1,0
Ortszeit Schneehöhe (cm)
So, 16.06. 2:00 0
Sa, 15.06. 20:00 0
Sa, 15.06. 14:00 0
Sa, 15.06. 8:00 0
Sa, 15.06. 2:00 0
Fr, 14.06. 20:00 0
Fr, 14.06. 14:00 0
Fr, 14.06. 8:00 0
Ortszeit Schneehöhe (cm)
So, 16.06. 2:00 0
So, 16.06. 1:50 0
So, 16.06. 1:40 -
So, 16.06. 1:30 0
So, 16.06. 1:20 0
So, 16.06. 1:10 -
So, 16.06. 1:00 0
So, 16.06. 0:30 0
So, 16.06. 0:00 0
Sa, 15.06. 23:30 0
Sa, 15.06. 23:00 0
Link zu dieser Seite / Seite empfehlen

Das Wetter in ...